createdAt,value
2019-04-04T04:00:41.471Z,4.26
2019-04-04T04:01:45.436Z,4.34
2019-04-04T04:02:42.417Z,4.22
2019-04-04T04:03:41.410Z,4.30
2019-04-04T04:04:41.405Z,4.45
2019-04-04T04:05:41.430Z,4.45
2019-04-04T04:06:42.204Z,4.56
2019-04-04T04:07:49.103Z,4.55
2019-04-04T04:08:41.365Z,4.60
2019-04-04T04:09:41.353Z,4.66
2019-04-04T04:10:41.340Z,4.67
2019-04-04T04:11:41.354Z,4.60
2019-04-04T04:12:43.167Z,4.70
2019-04-04T04:13:41.350Z,4.78
2019-04-04T04:14:41.301Z,4.82
2019-04-04T04:15:41.292Z,4.78
2019-04-04T04:16:41.282Z,4.87
2019-04-04T04:17:45.057Z,4.97
2019-04-04T04:18:41.269Z,4.93
2019-04-04T04:19:41.241Z,4.99
2019-04-04T04:20:41.242Z,5.04
2019-04-04T04:21:43.298Z,5.10
2019-04-04T04:22:41.239Z,5.07
2019-04-04T04:23:41.205Z,5.04
2019-04-04T04:24:41.190Z,5.05
2019-04-04T04:25:41.185Z,5.11
2019-04-04T04:26:42.168Z,5.23
2019-04-04T04:27:41.154Z,5.11
2019-04-04T04:28:41.175Z,5.15
2019-04-04T04:29:41.138Z,5.21
2019-04-04T04:30:48.652Z,5.20
2019-04-04T04:31:49.527Z,5.21
2019-04-04T04:32:48.665Z,5.17
2019-04-04T04:33:48.647Z,5.15
2019-04-04T04:34:41.084Z,5.15
2019-04-04T04:35:42.320Z,5.10
2019-04-04T04:36:41.059Z,5.15
2019-04-04T04:37:41.070Z,5.05
2019-04-04T04:38:41.042Z,5.05
2019-04-04T04:39:41.536Z,5.11
2019-04-04T04:40:41.058Z,5.18
2019-04-04T04:41:41.016Z,5.07
2019-04-04T04:42:41.001Z,5.08
2019-04-04T04:43:41.007Z,5.12
2019-04-04T04:44:40.990Z,5.08
2019-04-04T04:45:41.708Z,5.10
2019-04-04T04:46:40.959Z,5.11
2019-04-04T04:47:40.947Z,5.12
2019-04-04T04:48:40.933Z,5.05
2019-04-04T04:49:40.950Z,5.11
2019-04-04T04:50:41.149Z,5.07
2019-04-04T04:51:43.287Z,5.11
2019-04-04T04:52:40.896Z,5.15
2019-04-04T04:53:40.936Z,5.11
2019-04-04T04:54:40.890Z,5.08
2019-04-04T04:55:40.866Z,5.12
2019-04-04T04:56:40.877Z,5.15
2019-04-04T04:57:40.862Z,5.17
2019-04-04T04:58:42.133Z,5.17
2019-04-04T04:59:40.824Z,5.18
2019-04-04T05:00:40.829Z,5.23
2019-04-04T05:01:40.800Z,5.20
2019-04-04T05:02:40.786Z,5.18
2019-04-04T05:03:40.776Z,5.20
2019-04-04T05:04:40.765Z,5.18
2019-04-04T05:05:40.766Z,5.33
2019-04-04T05:06:40.757Z,5.32
2019-04-04T05:07:40.756Z,5.33
2019-04-04T05:08:41.031Z,5.33
2019-04-04T05:09:40.708Z,5.36
2019-04-04T05:10:40.696Z,5.30
2019-04-04T05:11:40.687Z,5.38
2019-04-04T05:12:40.695Z,5.39
2019-04-04T05:13:40.664Z,5.30
2019-04-04T05:14:40.665Z,5.39
2019-04-04T05:15:40.640Z,5.38
2019-04-04T05:16:40.636Z,5.46
2019-04-04T05:17:41.999Z,5.44
2019-04-04T05:18:40.615Z,5.47
2019-04-04T05:19:40.605Z,5.46
2019-04-04T05:20:40.594Z,5.53
2019-04-04T05:21:40.589Z,5.61
2019-04-04T05:22:40.616Z,5.62
2019-04-04T05:23:40.586Z,5.61
2019-04-04T05:24:40.554Z,5.54
2019-04-04T05:25:53.383Z,5.61
2019-04-04T05:26:41.525Z,5.59
2019-04-04T05:27:40.525Z,5.61
2019-04-04T05:28:41.999Z,5.69
2019-04-04T05:29:40.494Z,5.69
2019-04-04T05:30:40.506Z,5.61
2019-04-04T05:31:40.474Z,5.64
2019-04-04T05:32:40.456Z,5.64
2019-04-04T05:33:40.500Z,5.65
2019-04-04T05:34:40.445Z,5.62
2019-04-04T05:35:40.424Z,5.68
2019-04-04T05:36:40.422Z,5.71
2019-04-04T05:37:40.408Z,5.71
2019-04-04T05:38:42.643Z,5.75
2019-04-04T05:39:40.430Z,5.73
2019-04-04T05:40:40.399Z,5.83
2019-04-04T05:41:40.361Z,5.86
2019-04-04T05:42:40.360Z,5.79
2019-04-04T05:43:40.352Z,5.90
2019-04-04T05:44:41.709Z,5.84
2019-04-04T05:45:40.321Z,5.84
2019-04-04T05:46:40.323Z,5.98
2019-04-04T05:47:40.331Z,5.99
2019-04-04T05:48:40.382Z,5.91
2019-04-04T05:49:40.304Z,5.93
2019-04-04T05:50:43.330Z,5.99
2019-04-04T05:51:40.351Z,5.99
2019-04-04T05:52:40.258Z,5.99
2019-04-04T05:53:40.232Z,6.08
2019-04-04T05:54:40.228Z,6.08
2019-04-04T05:55:41.846Z,6.08
2019-04-04T05:56:40.210Z,6.01
2019-04-04T05:57:40.213Z,6.12
2019-04-04T05:58:40.209Z,6.19
2019-04-04T05:59:42.292Z,6.12
2019-04-04T06:00:40.157Z,6.16
2019-04-04T06:01:40.167Z,6.14
2019-04-04T06:02:41.104Z,6.24
2019-04-04T06:03:40.129Z,6.17
2019-04-04T06:04:40.113Z,6.14
2019-04-04T06:05:40.108Z,6.17
2019-04-04T06:06:40.096Z,6.26
2019-04-04T06:07:40.103Z,6.28
2019-04-04T06:08:43.191Z,6.30
2019-04-04T06:09:42.000Z,6.30
2019-04-04T06:10:40.078Z,6.26
2019-04-04T06:11:40.053Z,6.26
2019-04-04T06:12:40.033Z,6.38
2019-04-04T06:13:40.028Z,6.41
2019-04-04T06:14:40.009Z,6.48
2019-04-04T06:15:40.028Z,6.51
2019-04-04T06:16:40.008Z,6.51
2019-04-04T06:17:39.991Z,6.59
2019-04-04T06:18:41.001Z,6.54
2019-04-04T06:19:39.956Z,6.49
2019-04-04T06:20:39.941Z,6.57
2019-04-04T06:21:39.964Z,6.56
2019-04-04T06:22:39.920Z,6.66
2019-04-04T06:23:39.913Z,6.70
2019-04-04T06:24:39.904Z,6.72
2019-04-04T06:25:39.893Z,6.70
2019-04-04T06:26:39.899Z,6.79
2019-04-04T06:27:40.856Z,6.81
2019-04-04T06:28:39.860Z,6.84
2019-04-04T06:29:39.845Z,6.93
2019-04-04T06:30:43.323Z,7.00
2019-04-04T06:31:39.823Z,7.00
2019-04-04T06:32:40.032Z,7.11
2019-04-04T06:33:39.806Z,7.20
2019-04-04T06:34:39.798Z,7.33
2019-04-04T06:35:40.061Z,7.29
2019-04-04T06:36:39.775Z,7.39
2019-04-04T06:37:39.779Z,7.42
2019-04-04T06:38:39.774Z,7.61
2019-04-04T06:39:39.744Z,7.67
2019-04-04T06:40:39.735Z,7.63
2019-04-04T06:41:39.719Z,7.70
2019-04-04T06:42:39.709Z,7.85
2019-04-04T06:43:41.362Z,7.95
2019-04-04T06:44:39.708Z,7.97
2019-04-04T06:45:39.679Z,8.01
2019-04-04T06:46:39.691Z,8.08
2019-04-04T06:47:39.663Z,8.18
2019-04-04T06:48:39.670Z,8.19
2019-04-04T06:49:47.192Z,8.19
2019-04-04T06:50:48.186Z,8.24
2019-04-04T06:51:48.421Z,8.23
2019-04-04T06:52:48.268Z,8.20
2019-04-04T06:53:47.290Z,8.23
2019-04-04T06:54:39.599Z,8.27
2019-04-04T06:55:40.204Z,8.19
2019-04-04T06:56:39.559Z,8.18
2019-04-04T06:57:39.555Z,8.20
2019-04-04T06:58:40.205Z,8.19
2019-04-04T06:59:47.081Z,8.26
2019-04-04T07:00:50.014Z,8.13
2019-04-04T07:01:47.043Z,8.24
2019-04-04T07:02:39.498Z,8.28
2019-04-04T07:03:39.488Z,8.27
2019-04-04T07:04:39.492Z,8.33
2019-04-04T07:05:39.469Z,8.46
2019-04-04T07:06:41.758Z,8.38
2019-04-04T07:07:43.158Z,8.48
2019-04-04T07:08:39.429Z,8.56
2019-04-04T07:09:39.429Z,8.61
2019-04-04T07:10:39.432Z,8.56
2019-04-04T07:11:39.398Z,8.71
2019-04-04T07:12:39.403Z,8.74
2019-04-04T07:13:42.736Z,8.79
2019-04-04T07:14:45.487Z,8.84
2019-04-04T07:15:46.647Z,8.85
2019-04-04T07:16:40.364Z,8.94
2019-04-04T07:17:40.411Z,8.87
2019-04-04T07:18:40.966Z,8.92
2019-04-04T07:19:39.318Z,8.97
2019-04-04T07:20:39.319Z,8.99
2019-04-04T07:21:39.309Z,8.99
2019-04-04T07:22:39.285Z,9.06
2019-04-04T07:23:41.735Z,9.11
2019-04-04T07:24:39.267Z,9.06
2019-04-04T07:25:39.812Z,9.10
2019-04-04T07:26:39.269Z,9.08
2019-04-04T07:27:39.236Z,9.10
2019-04-04T07:28:39.222Z,9.04
2019-04-04T07:29:39.232Z,9.08
2019-04-04T07:30:39.197Z,9.06
2019-04-04T07:31:39.184Z,9.14
2019-04-04T07:32:41.605Z,9.06
2019-04-04T07:33:42.652Z,9.18
2019-04-04T07:34:39.174Z,9.21
2019-04-04T07:35:39.155Z,9.21
2019-04-04T07:36:39.155Z,9.23
2019-04-04T07:37:39.197Z,9.28
2019-04-04T07:38:39.115Z,9.23
2019-04-04T07:39:39.124Z,9.28
2019-04-04T07:40:39.094Z,9.22
2019-04-04T07:41:40.740Z,9.26
2019-04-04T07:42:40.251Z,9.26
2019-04-04T07:43:39.533Z,9.21
2019-04-04T07:44:39.052Z,9.32
2019-04-04T07:45:39.043Z,9.25
2019-04-04T07:46:41.307Z,9.41
2019-04-04T07:47:39.028Z,9.43
2019-04-04T07:48:39.033Z,9.36
2019-04-04T07:49:40.251Z,9.37
2019-04-04T07:50:38.993Z,9.34
2019-04-04T07:51:38.972Z,9.37
2019-04-04T07:52:38.967Z,9.62
2019-04-04T07:53:38.968Z,9.65
2019-04-04T07:54:39.203Z,9.76
2019-04-04T07:55:40.141Z,9.65
2019-04-04T07:56:38.924Z,9.77
2019-04-04T07:57:38.913Z,9.76
2019-04-04T07:58:38.908Z,9.83
2019-04-04T07:59:38.897Z,9.79
2019-04-04T08:00:38.897Z,9.87
2019-04-04T08:01:50.599Z,9.79
2019-04-04T08:02:39.854Z,9.79
2019-04-04T08:03:38.872Z,9.73
2019-04-04T08:04:38.838Z,9.76
2019-04-04T08:05:38.853Z,9.59
2019-04-04T08:06:38.815Z,9.65
2019-04-04T08:07:38.807Z,9.66
2019-04-04T08:08:38.792Z,9.55
2019-04-04T08:09:38.783Z,9.62
2019-04-04T08:10:38.837Z,9.64
2019-04-04T08:11:38.780Z,9.62
2019-04-04T08:12:38.754Z,9.55
2019-04-04T08:13:38.740Z,9.62
2019-04-04T08:14:38.765Z,9.50
2019-04-04T08:15:38.715Z,9.64
2019-04-04T08:16:38.729Z,9.61
2019-04-04T08:17:38.700Z,9.64
2019-04-04T08:18:38.685Z,9.61
2019-04-04T08:19:38.680Z,9.66
2019-04-04T08:20:38.660Z,9.61
2019-04-04T08:21:38.650Z,9.56
2019-04-04T08:22:39.830Z,9.64
2019-04-04T08:23:38.627Z,9.68
2019-04-04T08:24:38.627Z,9.59
2019-04-04T08:25:38.634Z,9.68
2019-04-04T08:26:38.600Z,9.73
2019-04-04T08:27:38.602Z,9.68
2019-04-04T08:28:38.582Z,9.74
2019-04-04T08:29:38.571Z,9.82
2019-04-04T08:30:38.566Z,9.82
2019-04-04T08:31:38.554Z,9.89
2019-04-04T08:32:38.544Z,9.89
2019-04-04T08:33:38.524Z,10.01
2019-04-04T08:34:38.519Z,10.04
2019-04-04T08:35:38.523Z,10.02
2019-04-04T08:36:38.495Z,10.12
2019-04-04T08:37:38.505Z,10.12
2019-04-04T08:38:38.479Z,10.15
2019-04-04T08:39:38.468Z,10.22
2019-04-04T08:40:38.446Z,10.15
2019-04-04T08:41:38.437Z,10.19
2019-04-04T08:42:38.436Z,10.15
2019-04-04T08:43:38.443Z,10.19
2019-04-04T08:44:38.401Z,10.16
2019-04-04T08:45:38.399Z,10.20
2019-04-04T08:46:38.386Z,10.16
2019-04-04T08:47:38.373Z,10.23
2019-04-04T08:48:38.373Z,10.19
2019-04-04T08:49:38.373Z,10.23
2019-04-04T08:50:38.342Z,10.22
2019-04-04T08:51:38.332Z,10.20
2019-04-04T08:52:38.318Z,10.13
2019-04-04T08:53:40.232Z,10.10
2019-04-04T08:54:38.310Z,10.12
2019-04-04T08:55:38.287Z,10.13
2019-04-04T08:56:38.280Z,9.98
2019-04-04T08:57:38.276Z,10.01
2019-04-04T08:58:38.254Z,10.01
2019-04-04T08:59:38.260Z,10.10
2019-04-04T09:00:38.239Z,10.02
2019-04-04T09:01:38.222Z,10.02
2019-04-04T09:02:38.211Z,9.86
2019-04-04T09:03:38.200Z,10.04
2019-04-04T09:04:38.190Z,9.99
2019-04-04T09:05:38.212Z,10.05
2019-04-04T09:06:38.171Z,9.95
2019-04-04T09:07:38.153Z,9.97
2019-04-04T09:08:38.149Z,10.01
2019-04-04T09:09:38.250Z,9.98
2019-04-04T09:10:38.134Z,9.94
2019-04-04T09:11:38.143Z,9.92
2019-04-04T09:12:38.101Z,9.86
2019-04-04T09:13:38.092Z,9.89
2019-04-04T09:14:40.962Z,9.99
2019-04-04T09:15:38.074Z,10.07
2019-04-04T09:16:38.064Z,10.01
2019-04-04T09:17:45.595Z,10.04
2019-04-04T09:18:45.576Z,10.15
2019-04-04T09:19:45.576Z,10.09
2019-04-04T09:20:38.019Z,10.04
2019-04-04T09:21:45.571Z,10.12
2019-04-04T09:22:40.874Z,10.01
2019-04-04T09:23:37.998Z,10.02
2019-04-04T09:24:37.977Z,10.09
2019-04-04T09:25:40.725Z,10.16
2019-04-04T09:26:38.013Z,10.15
2019-04-04T09:27:37.964Z,10.15
2019-04-04T09:28:37.931Z,10.10
2019-04-04T09:29:37.924Z,10.17
2019-04-04T09:30:37.917Z,10.05
2019-04-04T09:31:37.899Z,10.12
2019-04-04T09:32:37.917Z,10.16
2019-04-04T09:33:37.879Z,10.17
2019-04-04T09:34:37.868Z,10.16
2019-04-04T09:35:37.859Z,10.10
2019-04-04T09:36:37.850Z,10.07
2019-04-04T09:37:37.839Z,10.19
2019-04-04T09:38:37.840Z,10.15
2019-04-04T09:39:37.817Z,10.17
2019-04-04T09:40:37.800Z,10.26
2019-04-04T09:41:37.803Z,10.25
2019-04-04T09:42:37.801Z,10.30
2019-04-04T09:43:37.766Z,10.22
2019-04-04T09:44:37.781Z,10.31
2019-04-04T09:45:37.751Z,10.37
2019-04-04T09:46:37.746Z,10.40
2019-04-04T09:47:37.734Z,10.34
2019-04-04T09:48:37.717Z,10.44
2019-04-04T09:49:37.704Z,10.60
2019-04-04T09:50:37.715Z,10.56
2019-04-04T09:51:37.681Z,10.60
2019-04-04T09:52:37.679Z,10.64
2019-04-04T09:53:52.453Z,10.67
2019-04-04T09:54:38.664Z,10.67
2019-04-04T09:55:37.640Z,10.61
2019-04-04T09:56:37.632Z,10.61
2019-04-04T09:57:37.630Z,10.69
2019-04-04T09:58:37.611Z,10.75
2019-04-04T09:59:37.616Z,10.84
2019-04-04T10:00:37.584Z,10.89
2019-04-04T10:01:37.575Z,10.78
2019-04-04T10:02:37.560Z,10.90
2019-04-04T10:03:37.568Z,10.87
2019-04-04T10:04:37.571Z,10.75
2019-04-04T10:05:37.535Z,10.72
2019-04-04T10:06:37.529Z,10.71
2019-04-04T10:07:37.512Z,10.67
2019-04-04T10:08:38.919Z,10.71
2019-04-04T10:09:37.501Z,10.68
2019-04-04T10:10:37.481Z,10.61
2019-04-04T10:11:37.501Z,10.69
2019-04-04T10:12:37.456Z,10.67
2019-04-04T10:13:37.447Z,10.87
2019-04-04T10:14:37.436Z,10.79
2019-04-04T10:15:37.442Z,10.97
2019-04-04T10:16:37.418Z,11.04
2019-04-04T10:17:37.411Z,11.04
2019-04-04T10:18:37.392Z,11.05
2019-04-04T10:19:37.391Z,11.18
2019-04-04T10:20:37.373Z,11.45
2019-04-04T10:21:37.376Z,11.52
2019-04-04T10:22:37.349Z,11.73
2019-04-04T10:23:37.334Z,11.81
2019-04-04T10:24:37.325Z,11.87
2019-04-04T10:25:37.318Z,11.99
2019-04-04T10:26:37.333Z,12.12
2019-04-04T10:27:37.293Z,12.13
2019-04-04T10:28:37.282Z,12.18
2019-04-04T10:29:37.273Z,12.25
2019-04-04T10:30:37.300Z,12.35
2019-04-04T10:31:37.260Z,12.28
2019-04-04T10:32:37.257Z,12.35
2019-04-04T10:33:37.237Z,12.29
2019-04-04T10:34:37.226Z,12.43
2019-04-04T10:35:37.211Z,12.45
2019-04-04T10:36:37.203Z,12.46
2019-04-04T10:37:37.199Z,12.54
2019-04-04T10:38:37.176Z,12.61
2019-04-04T10:39:37.184Z,12.67
2019-04-04T10:40:37.155Z,12.78
2019-04-04T10:41:37.156Z,12.87
2019-04-04T10:42:37.138Z,13.13
2019-04-04T10:43:37.129Z,13.31
2019-04-04T10:44:37.376Z,13.57
2019-04-04T10:45:37.126Z,13.78
2019-04-04T10:46:37.081Z,13.85
2019-04-04T10:47:37.079Z,13.97
2019-04-04T10:48:37.071Z,14.18
2019-04-04T10:49:37.064Z,14.32
2019-04-04T10:50:37.045Z,14.45
2019-04-04T10:51:37.050Z,14.59
2019-04-04T10:52:37.028Z,14.62
2019-04-04T10:53:37.010Z,14.65
2019-04-04T10:54:37.003Z,14.66
2019-04-04T10:55:36.990Z,14.72
2019-04-04T10:56:37.003Z,14.73
2019-04-04T10:57:36.995Z,14.72
2019-04-04T10:58:36.961Z,14.84
2019-04-04T10:59:36.958Z,14.89
2019-04-04T11:00:36.941Z,14.89
2019-04-04T11:01:36.928Z,14.78
2019-04-04T11:02:36.930Z,14.72
2019-04-04T11:03:36.937Z,14.59
2019-04-04T11:04:36.910Z,14.44
2019-04-04T11:05:36.885Z,14.28
2019-04-04T11:06:36.880Z,13.99
2019-04-04T11:07:36.863Z,13.81
2019-04-04T11:08:36.858Z,13.56
2019-04-04T11:09:42.072Z,13.27
2019-04-04T11:10:37.843Z,13.12
2019-04-04T11:11:36.827Z,12.93
2019-04-04T11:12:36.806Z,12.73
2019-04-04T11:13:36.797Z,12.72
2019-04-04T11:14:36.815Z,12.50
2019-04-04T11:15:36.776Z,12.40
2019-04-04T11:16:36.771Z,12.32
2019-04-04T11:17:36.764Z,12.29
2019-04-04T11:18:36.744Z,12.18
2019-04-04T11:19:36.768Z,12.17
2019-04-04T11:20:36.722Z,12.13
2019-04-04T11:21:36.717Z,12.12
2019-04-04T11:22:36.721Z,12.03
2019-04-04T11:23:36.691Z,12.04
2019-04-04T11:24:36.677Z,11.97
2019-04-04T11:25:36.689Z,11.90
2019-04-04T11:26:36.654Z,11.77
2019-04-04T11:27:36.671Z,11.66
2019-04-04T11:28:36.636Z,11.63
2019-04-04T11:29:36.630Z,11.52
2019-04-04T11:30:36.617Z,11.47
2019-04-04T11:31:36.601Z,11.45
2019-04-04T11:32:36.624Z,11.37
2019-04-04T11:33:36.585Z,11.32
2019-04-04T11:34:53.038Z,11.47
2019-04-04T11:35:37.554Z,11.29
2019-04-04T11:36:44.083Z,11.36
2019-04-04T11:37:36.589Z,11.29
2019-04-04T11:38:44.350Z,11.23
2019-04-04T11:39:36.513Z,11.12
2019-04-04T11:40:36.516Z,11.10
2019-04-04T11:41:36.497Z,11.10
2019-04-04T11:42:36.479Z,10.96
2019-04-04T11:43:36.487Z,11.05
2019-04-04T11:44:36.459Z,10.93
2019-04-04T11:45:36.450Z,10.99
2019-04-04T11:46:36.457Z,11.04
2019-04-04T11:47:36.443Z,10.89
2019-04-04T11:48:36.445Z,10.96
2019-04-04T11:49:36.429Z,10.87
2019-04-04T11:50:36.400Z,10.87
2019-04-04T11:51:36.385Z,10.92
2019-04-04T11:52:36.386Z,10.92
2019-04-04T11:53:36.363Z,10.93
2019-04-04T11:54:36.354Z,10.79
2019-04-04T11:55:36.369Z,10.81
2019-04-04T11:56:36.342Z,10.93
2019-04-04T11:57:36.469Z,10.89
2019-04-04T11:58:36.319Z,10.93
2019-04-04T11:59:36.303Z,10.94
2019-04-04T12:00:36.307Z,11.05
2019-04-04T12:01:36.280Z,11.08
2019-04-04T12:02:36.268Z,11.07
2019-04-04T12:03:36.253Z,11.27
2019-04-04T12:04:36.255Z,11.36
2019-04-04T12:05:36.254Z,11.55
2019-04-04T12:06:36.225Z,11.60
2019-04-04T12:07:38.362Z,11.86
2019-04-04T12:08:36.217Z,11.90
2019-04-04T12:09:36.195Z,12.02
2019-04-04T12:10:36.181Z,12.12
2019-04-04T12:11:36.215Z,12.13
2019-04-04T12:12:36.232Z,12.10
2019-04-04T12:13:36.151Z,12.21
2019-04-04T12:14:36.135Z,12.09
2019-04-04T12:15:36.139Z,12.04
2019-04-04T12:16:36.129Z,11.99
2019-04-04T12:17:36.105Z,11.95
2019-04-04T12:18:36.112Z,11.91
2019-04-04T12:19:36.087Z,12.02
2019-04-04T12:20:36.075Z,11.97
2019-04-04T12:21:36.089Z,11.91
2019-04-04T12:22:36.053Z,12.03
2019-04-04T12:23:36.036Z,12.12
2019-04-04T12:24:36.025Z,12.13
2019-04-04T12:25:36.016Z,12.20
2019-04-04T12:26:36.007Z,12.10
2019-04-04T12:27:36.013Z,12.07
2019-04-04T12:28:35.986Z,12.03
2019-04-04T12:29:35.989Z,11.99
2019-04-04T12:30:35.981Z,11.84
2019-04-04T12:31:35.961Z,11.73
2019-04-04T12:32:35.967Z,11.81
2019-04-04T12:33:35.931Z,11.77
2019-04-04T12:34:35.925Z,11.80
2019-04-04T12:35:35.909Z,11.83
2019-04-04T12:36:35.897Z,11.86
2019-04-04T12:37:35.896Z,11.95
2019-04-04T12:38:35.891Z,11.88
2019-04-04T12:39:35.870Z,11.95
2019-04-04T12:40:35.858Z,12.06
2019-04-04T12:41:35.845Z,12.21
2019-04-04T12:42:35.855Z,12.31
2019-04-04T12:43:35.890Z,12.45
2019-04-04T12:44:35.813Z,12.68
2019-04-04T12:45:35.802Z,12.75
2019-04-04T12:46:35.789Z,12.75
2019-04-04T12:47:35.800Z,12.61
2019-04-04T12:48:35.770Z,12.65
2019-04-04T12:49:35.757Z,12.54
2019-04-04T12:50:35.748Z,12.49
2019-04-04T12:51:35.739Z,12.45
2019-04-04T12:52:37.013Z,12.47
2019-04-04T12:53:35.734Z,12.28
2019-04-04T12:54:35.706Z,12.31
2019-04-04T12:55:35.692Z,12.17
2019-04-04T12:56:35.679Z,12.09
2019-04-04T12:57:35.669Z,12.02
2019-04-04T12:58:35.677Z,11.83
2019-04-04T12:59:35.651Z,11.77
2019-04-04T13:00:35.643Z,11.63
2019-04-04T13:01:35.641Z,11.65
2019-04-04T13:02:35.626Z,11.63
2019-04-04T13:03:35.624Z,11.57
2019-04-04T13:04:35.616Z,11.48
2019-04-04T13:05:35.585Z,11.44
2019-04-04T13:06:35.575Z,11.41
2019-04-04T13:07:35.580Z,11.29
2019-04-04T13:08:35.561Z,11.30
2019-04-04T13:09:35.564Z,11.27
2019-04-04T13:10:35.536Z,11.17
2019-04-04T13:11:35.528Z,11.08
2019-04-04T13:12:35.516Z,11.10
2019-04-04T13:13:38.060Z,10.96
2019-04-04T13:14:35.533Z,10.96
2019-04-04T13:15:35.491Z,10.94
2019-04-04T13:16:35.481Z,10.90
2019-04-04T13:17:35.458Z,10.90
2019-04-04T13:18:35.459Z,10.89
2019-04-04T13:19:35.428Z,10.89
2019-04-04T13:20:35.441Z,10.82
2019-04-04T13:21:35.419Z,10.82
2019-04-04T13:22:35.407Z,10.89
2019-04-04T13:23:35.400Z,10.89
2019-04-04T13:24:35.380Z,10.86
2019-04-04T13:25:35.371Z,10.87
2019-04-04T13:26:35.370Z,10.89
2019-04-04T13:27:35.346Z,11.00
2019-04-04T13:28:35.338Z,10.96
2019-04-04T13:29:35.328Z,11.04
2019-04-04T13:30:35.326Z,11.08
2019-04-04T13:31:35.326Z,11.05
2019-04-04T13:32:35.287Z,11.08
2019-04-04T13:33:35.280Z,11.07
2019-04-04T13:34:35.284Z,11.05
2019-04-04T13:35:37.697Z,11.05
2019-04-04T13:36:36.740Z,11.04
2019-04-04T13:37:35.241Z,11.07
2019-04-04T13:38:35.225Z,11.07
2019-04-04T13:39:35.211Z,11.08
2019-04-04T13:40:44.749Z,11.04
2019-04-04T13:41:36.210Z,11.10
2019-04-04T13:42:35.183Z,11.08
2019-04-04T13:43:35.195Z,11.10
2019-04-04T13:44:35.166Z,11.11
2019-04-04T13:45:35.153Z,11.25
2019-04-04T13:46:35.147Z,11.12
2019-04-04T13:47:38.289Z,11.15
2019-04-04T13:48:35.120Z,11.25
2019-04-04T13:49:35.133Z,11.19
2019-04-04T13:50:35.098Z,11.14
2019-04-04T13:51:35.090Z,11.14
2019-04-04T13:52:35.080Z,11.08
2019-04-04T13:53:42.676Z,11.11
2019-04-04T13:54:42.587Z,11.17
2019-04-04T13:55:42.582Z,11.12
2019-04-04T13:56:42.571Z,11.12
2019-04-04T13:57:35.018Z,11.07
2019-04-04T13:58:35.012Z,11.05
2019-04-04T13:59:35.024Z,11.08
2019-04-04T14:00:35.032Z,11.19
2019-04-04T14:01:34.984Z,11.18
2019-04-04T14:02:34.981Z,11.18
2019-04-04T14:03:34.953Z,11.18
2019-04-04T14:04:34.964Z,11.23
2019-04-04T14:05:34.959Z,11.22
2019-04-04T14:06:34.926Z,11.23
2019-04-04T14:07:34.914Z,11.19
2019-04-04T14:08:34.904Z,11.18
2019-04-04T14:09:34.908Z,11.10
2019-04-04T14:10:34.896Z,11.14
2019-04-04T14:11:34.866Z,11.10
2019-04-04T14:12:34.891Z,11.08
2019-04-04T14:13:34.850Z,11.08
2019-04-04T14:14:34.839Z,11.11
2019-04-04T14:15:34.836Z,11.08
2019-04-04T14:16:34.815Z,11.05
2019-04-04T14:17:34.806Z,11.11
2019-04-04T14:18:39.900Z,10.94
2019-04-04T14:19:36.449Z,11.00
2019-04-04T14:20:34.794Z,10.97
2019-04-04T14:21:34.760Z,10.99
2019-04-04T14:22:34.766Z,10.97
2019-04-04T14:23:34.734Z,10.97
2019-04-04T14:24:34.725Z,10.94
2019-04-04T14:25:34.738Z,10.89
2019-04-04T14:26:34.715Z,10.75
2019-04-04T14:27:34.698Z,10.79
2019-04-04T14:28:34.683Z,10.67
2019-04-04T14:29:34.675Z,10.69
2019-04-04T14:30:34.680Z,10.64
2019-04-04T14:31:34.655Z,10.71
2019-04-04T14:32:34.661Z,10.76
2019-04-04T14:33:34.643Z,10.78
2019-04-04T14:34:34.618Z,10.75
2019-04-04T14:35:34.622Z,10.89
2019-04-04T14:36:34.604Z,10.92
2019-04-04T14:37:34.586Z,10.99
2019-04-04T14:38:34.582Z,10.93
2019-04-04T14:39:34.580Z,11.00
2019-04-04T14:40:34.579Z,11.04
2019-04-04T14:41:34.547Z,11.10
2019-04-04T14:42:34.533Z,11.08
2019-04-04T14:43:34.522Z,11.14
2019-04-04T14:44:35.925Z,11.11
2019-04-04T14:45:34.512Z,11.18
2019-04-04T14:46:34.495Z,11.11
2019-04-04T14:47:34.493Z,11.07
2019-04-04T14:48:34.468Z,11.12
2019-04-04T14:49:34.477Z,11.10
2019-04-04T14:50:34.448Z,11.04
2019-04-04T14:51:34.439Z,11.07
2019-04-04T14:52:34.436Z,10.93
2019-04-04T14:53:34.414Z,10.92
2019-04-04T14:54:34.426Z,10.97
2019-04-04T14:55:34.392Z,10.94
2019-04-04T14:56:34.380Z,10.81
2019-04-04T14:57:34.388Z,10.79
2019-04-04T14:58:34.394Z,10.79
2019-04-04T14:59:34.394Z,10.74
2019-04-04T15:00:34.485Z,10.75
2019-04-04T15:01:35.220Z,10.84
2019-04-04T15:02:35.317Z,10.93
2019-04-04T15:03:34.322Z,10.90
2019-04-04T15:04:34.311Z,10.75
2019-04-04T15:05:34.284Z,10.71
2019-04-04T15:06:34.277Z,10.78
2019-04-04T15:07:34.259Z,10.64
2019-04-04T15:08:34.250Z,10.71
2019-04-04T15:09:34.272Z,10.67
2019-04-04T15:10:34.231Z,10.61
2019-04-04T15:11:34.221Z,10.69
2019-04-04T15:12:34.216Z,10.61
2019-04-04T15:13:34.203Z,10.57
2019-04-04T15:14:34.209Z,10.51
2019-04-04T15:15:34.173Z,10.46
2019-04-04T15:16:34.168Z,10.37
2019-04-04T15:17:34.154Z,10.51
2019-04-04T15:18:34.142Z,10.42
2019-04-04T15:19:34.146Z,10.40
2019-04-04T15:20:34.124Z,10.34
2019-04-04T15:21:34.109Z,10.48
2019-04-04T15:22:34.102Z,10.34
2019-04-04T15:23:34.091Z,10.37
2019-04-04T15:24:34.095Z,10.33
2019-04-04T15:25:34.067Z,10.37
2019-04-04T15:26:34.066Z,10.37
2019-04-04T15:27:34.066Z,10.37
2019-04-04T15:28:34.060Z,10.38
2019-04-04T15:29:34.023Z,10.38
2019-04-04T15:30:34.014Z,10.37
2019-04-04T15:31:34.004Z,10.35
2019-04-04T15:32:33.987Z,10.31
2019-04-04T15:33:33.983Z,10.33
2019-04-04T15:34:33.994Z,10.28
2019-04-04T15:35:33.969Z,10.30
2019-04-04T15:36:33.950Z,10.38
2019-04-04T15:37:33.942Z,10.38
2019-04-04T15:38:33.926Z,10.35
2019-04-04T15:39:33.933Z,10.37
2019-04-04T15:40:33.901Z,10.40
2019-04-04T15:41:37.337Z,10.54
2019-04-04T15:42:33.883Z,10.56
2019-04-04T15:43:33.875Z,10.69
2019-04-04T15:44:33.886Z,10.71
2019-04-04T15:45:33.855Z,10.69
2019-04-04T15:46:33.844Z,10.69
2019-04-04T15:47:33.826Z,10.64
2019-04-04T15:48:33.827Z,10.67
2019-04-04T15:49:33.807Z,10.68
2019-04-04T15:50:33.814Z,10.64
2019-04-04T15:51:33.792Z,10.60
2019-04-04T15:52:33.771Z,10.63
2019-04-04T15:53:33.773Z,10.54
2019-04-04T15:54:33.783Z,10.60
2019-04-04T15:55:33.747Z,10.71
2019-04-04T15:56:33.748Z,10.64
2019-04-04T15:57:33.723Z,10.63
2019-04-04T15:58:33.711Z,10.67
2019-04-04T15:59:33.718Z,10.71
2019-04-04T16:00:33.690Z,10.82
2019-04-04T16:01:33.699Z,10.82
2019-04-04T16:02:33.685Z,10.90
2019-04-04T16:03:33.657Z,11.00
2019-04-04T16:04:33.641Z,11.05
2019-04-04T16:05:33.634Z,11.02
2019-04-04T16:06:33.635Z,10.97
2019-04-04T16:07:33.633Z,11.11
2019-04-04T16:08:33.611Z,11.07
2019-04-04T16:09:33.597Z,11.11
2019-04-04T16:10:33.581Z,11.08
2019-04-04T16:11:33.569Z,11.10
2019-04-04T16:12:41.119Z,11.18
2019-04-04T16:13:41.089Z,11.12
2019-04-04T16:14:41.075Z,11.17
2019-04-04T16:15:41.056Z,11.04
2019-04-04T16:16:41.057Z,11.14
2019-04-04T16:17:33.529Z,11.14
2019-04-04T16:18:33.495Z,11.12
2019-04-04T16:19:33.483Z,11.04
2019-04-04T16:20:33.473Z,11.05
2019-04-04T16:21:33.470Z,10.92
2019-04-04T16:22:33.466Z,10.96
2019-04-04T16:23:33.442Z,10.82
2019-04-04T16:24:33.436Z,10.75
2019-04-04T16:25:33.429Z,10.68
2019-04-04T16:26:33.408Z,10.57
2019-04-04T16:27:33.425Z,10.53
2019-04-04T16:28:33.387Z,10.46
2019-04-04T16:29:33.379Z,10.42
2019-04-04T16:30:33.378Z,10.28
2019-04-04T16:31:34.559Z,10.25
2019-04-04T16:32:33.342Z,10.22
2019-04-04T16:33:33.351Z,10.22
2019-04-04T16:34:33.325Z,10.15
2019-04-04T16:35:33.316Z,9.98
2019-04-04T16:36:33.299Z,10.02
2019-04-04T16:37:33.291Z,10.02
2019-04-04T16:38:33.281Z,9.99
2019-04-04T16:39:35.365Z,9.99
2019-04-04T16:40:33.254Z,10.01
2019-04-04T16:41:33.248Z,9.87
2019-04-04T16:42:33.235Z,9.91
2019-04-04T16:44:38.033Z,9.82
2019-04-04T16:53:20.794Z,9.54
2019-04-04T17:01:21.070Z,9.46
2019-04-04T17:06:54.764Z,9.40
2019-04-04T17:29:27.334Z,8.00
2019-04-04T17:30:30.399Z,7.94
2019-04-04T17:33:09.260Z,7.83
2019-04-04T17:34:06.578Z,7.75
2019-04-04T17:42:28.169Z,7.54
2019-04-04T17:43:18.609Z,7.39
2019-04-04T17:44:17.935Z,7.42
2019-04-04T17:45:17.567Z,7.43
2019-04-04T17:46:17.555Z,7.43
2019-04-04T17:47:17.973Z,7.43
2019-04-04T17:48:17.653Z,7.48
2019-04-04T17:49:17.908Z,7.45
2019-04-04T17:50:18.735Z,7.57
2019-04-04T17:51:17.834Z,7.58
2019-04-04T17:52:17.494Z,7.53
2019-04-04T17:53:17.975Z,7.61